Accueil
METAR-TAF:

METAR-TAF

Aéroports :

Tromsø, Norvège

Aéroport de Tromsø

latitude: 69-41N, longitude: 018-55E, altitude: 1 m

Observation

Le bulletin a été fait il y a 38 minutes, à 22:20 UTC
Vent 5 kt de sud, variant entre sud-est et sud/sud-ouest
Température -11°C
Humidité 72%
Pression 1011 hPa
Visibilité 10 km ou plus
pas de nuages en-dessous de 1500 mètres et pas de cumulonimbus.

METAR: ENTC 202220Z 17005KT 130V200 CAVOK M11/M15 Q1011

Heure: 23:58 (22:58 UTC)

Prévision

Prévision valable du 20 à 18 UTC au 21 à 18 UTC
Vent 10 kt de sud
Visibilité 10 km ou plus
pas de nuages en-dessous de 1500 mètres et pas de cumulonimbus.

TAF: ENTC 2018/2118 19010KT CAVOK

Observations et prévisions météorologiques de plus de 4000 aéroports (messages METAR et TAF).

Les stations disponibles sont représentées par des disques jaunes et rouges sur la carte.

Passer la souris dessus pour voir le nom de la station.

Cliquer dessus pour voir les observations et prévisions météorologiques.

Pour changer de carte: cliquez sur les boutons verts avec une croix noire pour zoomer, sur le bouton vert avec un tiret pour effectuer un zoom arrière, ou sur les flèches vertes pour les cartes adjacentes.


METAR-TAF: